x

West Santa Barbara 38 Nm West Of Santa Barbara, Ca (46054) Wave Buoy

5:50am - Tue 26th May 2015 All times are PDT. -7 hours from GMT.

  • Sig Wave height 3.9ft
  • Swell Direction
  • Peak Period 15s
  • Average Period 6s
  • Wind
    16mph, 18mph gusts
  • Sea Temp 57°f
  • 空気 Temp 55°f
  • Sea Pressure 1015mb
  • West Santa Barbara  38 Nm West Of Santa Barbara, Ca
  • West Santa Barbara  38 Nm West Of Santa Barbara, Ca

More Historic Weather Station data

Upgrade to MSW Pro to gain access to the past 30 days of data for over 8000 Wavebouys and Weather Stations around the globe.

Join Pro

Comparision Forecast

View Surf forecast
   
Tue 05/26 5:50am 4ft 15s 6s 16 18 mph 1015mb 57f 55f
4:50am 3.5ft 11s 6s 16 18 mph 1015.2mb 56f 55f
3:50am 3.5ft 15s 6s 16 18 mph 1014.9mb 56f 55f
2:50am 4ft 15s 6s 16 18 mph 1015.1mb 55f 55f
1:50am 4ft 15s 6s 13 16 mph 1015mb 54f 55f
12:50am 3.5ft 15s 6s 16 18 mph 1015.3mb 54f 55f
Mon 05/25 11:50pm 3.5ft 15s 5s 13 16 mph 1015.9mb 54f 55f
10:50pm 3.5ft 15s 6s 16 20 mph 1015.9mb 55f 56f
9:50pm 3.5ft 16s 5s 16 20 mph 1015.8mb 55f 56f
8:50pm 3.5ft 16s 5s 16 20 mph 1015mb 55f 56f
7:50pm 4ft 16s 6s 18 20 mph 1014.6mb 55f 56f
6:50pm 4ft 16s 6s 13 16 mph 1014.5mb 55f 56f
5:50pm 4ft 15s 6s 13 16 mph 1014.4mb 55f 56f
4:50pm 4ft 15s 6s 13 16 mph 1014.8mb 54f 55f
3:50pm 4.5ft 9s 6s 13 16 mph 1015.3mb 54f 55f
2:50pm 4.5ft 8s 6s 13 18 mph 1015.7mb 54f 55f
1:50pm 4.5ft 9s 6s 13 16 mph 1015.8mb 54f 55f
12:50pm 5ft 8s 6s 11 13 mph 1015.9mb 54f 55f
11:50am 4.5ft 9s 6s 13 16 mph 1016mb 54f 55f
10:50am 4.5ft 9s 6s 13 16 mph 1016mb 54f 55f
9:50am 4.5ft 9s 6s 13 16 mph 1015.9mb 53f 55f
8:50am 4.5ft 11s 6s 16 18 mph 1015.3mb 53f 55f
7:50am 5ft 9s 6s 18 20 mph 1014.9mb 53f 54f
6:50am 5ft 9s 6s 18 20 mph 1014.5mb 53f 54f
5:50am 5ft 9s 6s 16 20 mph 1014.1mb 53f 54f
4:50am 5ft 10s 6s 16 20 mph 1013.8mb 53f 54f
3:50am 5ft 10s 6s 20 25 mph 1013.8mb 53f 54f
2:50am 5.5ft 9s 6s 18 22 mph 1014mb 53f 54f
1:50am 5.5ft 9s 6s 20 25 mph 1014.2mb 53f 54f
12:50am 5ft 9s 6s 18 22 mph 1014.7mb 53f 55f
Sun 05/24 11:50pm 5ft 9s 6s 18 22 mph 1015mb 53f 55f
10:50pm 5ft 9s 5s 20 22 mph 1015mb 54f 55f
9:50pm 5ft 8s 5s 18 22 mph 1014.9mb 54f 55f
8:50pm 5ft 9s 5s 22 27 mph 1014.4mb 55f 56f
7:50pm 5ft 8s 5s 22 27 mph 1014.2mb 55f 56f
6:50pm 5ft 8s 5s 25 29 mph 1014.1mb 55f 56f
5:50pm 5ft 8s 5s 25 29 mph 1014.2mb 55f 56f
4:50pm 5ft 8s 5s 20 25 mph 1014.2mb 54f 56f
3:50pm 4.5ft 8s 5s 20 25 mph 1014.6mb 55f 56f
2:50pm 4.5ft 8s 6s 22 25 mph 1015.3mb 55f 56f
1:50pm 4.5ft 8s 5s 20 25 mph 1016.2mb 55f 55f
12:50pm 5.5ft 7s 6s 20 25 mph 1016.7mb 55f 55f
11:50am 5ft 9s 5s 20 22 mph 1017mb 55f 55f
10:50am 5ft 8s 5s 20 25 mph 1016.9mb 55f 56f
9:50am 5ft 9s 5s 20 25 mph 1016.9mb 55f 56f
8:50am 5ft 8s 5s 20 22 mph 1016.9mb 55f 55f
7:50am 6ft 8s 5s 22 27 mph 1016.7mb 55f 55f
6:50am 6ft 8s 6s 22 27 mph 1016.4mb 55f 55f
5:50am 6ft 8s 6s 25 29 mph 1015.6mb 55f 55f
4:50am 6ft 8s 6s 22 27 mph 1015.7mb 55f 55f
3:50am 6ft 8s 6s 20 25 mph 1016.1mb 55f 55f
2:50am 6.5ft 8s 6s 18 22 mph 1016.4mb 55f 56f
1:50am 6ft 7s 6s 20 25 mph 1016.2mb 56f 56f
12:50am 6.5ft 9s 6s 18 22 mph 1016.9mb 56f 56f
Sat 05/23 11:50pm 6ft 8s 6s 18 22 mph 1017.6mb 56f 56f
10:50pm 5ft 7s 5s 22 27 mph 1017.4mb 56f 56f
9:50pm 5ft 6s 5s 22 27 mph 1017.5mb 57f 57f
8:50pm 5ft 6s 5s 22 27 mph 1017.5mb 57f 57f
7:50pm 4.5ft 7s 5s 25 31 mph 1017.2mb 57f 57f
6:50pm 5ft 5s 5s 25 29 mph 1017.1mb 57f 57f
5:50pm 4.5ft 6s 5s 25 29 mph 1017.1mb 57f 57f
4:50pm 5ft 6s 5s 22 29 mph 1017.2mb 57f 57f
3:50pm 5ft 11s 5s 22 27 mph 1017.9mb 57f 57f
2:50pm 4.5ft 11s 5s 25 27 mph 1018.3mb 57f 57f
1:50pm 4.5ft 11s 5s 20 25 mph 1018.6mb 57f 56f
12:50pm 4ft 11s 5s 18 22 mph 1019.3mb 57f 57f
11:50am 4.5ft 9s 5s 16 18 mph 1019.6mb 57f 56f
10:50am 4.5ft 11s 5s 20 22 mph 1019.5mb 57f 56f
9:50am 4.5ft 11s 5s 20 25 mph 1019.3mb 57f 57f
8:50am 4ft 10s 5s 20 22 mph 1019.1mb 57f 57f
7:50am 3.5ft 10s 5s 20 22 mph 1018.8mb 57f 57f
6:50am 4ft 10s 5s 16 20 mph 1018.7mb 57f 57f
5:50am 4ft 11s 5s 20 25 mph 1018.1mb 57f 57f
4:50am 4ft 11s 5s 20 25 mph 1018mb 57f 57f
3:50am 3.5ft 11s 5s 18 25 mph 1017.7mb 57f 57f
2:50am 3.5ft 11s 5s 20 22 mph 1017.5mb 57f 57f
1:50am 3.5ft 11s 5s 20 22 mph 1017.7mb 58f 57f
12:50am 3.5ft 12s 5s 18 20 mph 1018mb 58f 57f
Fri 05/22 11:50pm 3.5ft 11s 5s 16 20 mph 1018mb 58f 57f
10:50pm 4ft 11s 5s 18 22 mph 1018.2mb 58f 58f
9:50pm 4ft 11s 5s 16 20 mph 1018.1mb 58f 58f
8:50pm 4ft 11s 5s 18 20 mph 1017.7mb 58f 58f
7:50pm 4ft 11s 5s 18 22 mph 1017.1mb 58f 58f
6:50pm 3.5ft 11s 5s 18 20 mph 1016.6mb 58f 59f
5:50pm 3.5ft 12s 5s 16 18 mph 1016.5mb 58f 59f
4:50pm 3.5ft 11s 6s 16 20 mph 1016.3mb 58f 59f
3:50pm 3.5ft 12s 6s 18 20 mph 1016.1mb 58f 58f
2:50pm 3.5ft 11s 6s 16 18 mph 1016.5mb 58f 58f